Terminal Aerodrome Forecast
Issued by NWS

Home | Current Version | Previous Version | Graphics & Text | Print | Product List | Glossary On
Versions: 1 2 3 4 5 6 7 8 9 10 11 12
638
FTUS42 KMHX 210009 RRA
TAFISO
TAF
KISO 210009Z 2100/2124 00000KT P6SM SCT250
     FM211800 12005KT P6SM BKN060
      AMD LTD TO CLD VIS AND WIND=

USA.gov is the U.S. government's official web portal to all federal, state and local government web resources and services.